Time;durP1;ratioP1;P1;durP2;ratioP2;P2;SDS_P1;SDS_P2;PMS_P1;PMS_P2;Temp;Humidity;BMP_temperature;BMP_pressure;BME280_temperature;BME280_humidity;BME280_pressure;Samples;Min_cycle;Max_cycle;Signal;HPM_P1;HPM_P2
2023/06/30 00:00:09;;;;;;;6.28;4.50;;;;;;;19.02;69.57;100729.06;683333;28;1493;-77
2023/06/30 00:00:29;;;;;;;6.53;4.50;;;;;;;19.02;69.72;100728.19;685350;28;1536;-78
2023/06/30 00:00:50;;;;;;;7.05;4.60;;;;;;;18.98;69.67;100731.72;685270;28;1251;-78
2023/06/30 00:01:10;;;;;;;6.90;4.67;;;;;;;19.00;69.47;100736.13;685627;28;1195;-78
2023/06/30 00:01:32;;;;;;;6.53;4.60;;;;;;;18.91;69.60;100726.50;685935;28;818;-77
2023/06/30 00:01:52;;;;;;;6.90;4.80;;;;;;;18.94;69.61;100724.72;680419;29;1077;-77
2023/06/30 00:02:13;;;;;;;7.38;4.90;;;;;;;18.98;69.61;100732.63;684665;28;1107;-78
2023/06/30 00:02:34;;;;;;;7.30;4.93;;;;;;;18.97;69.61;100738.81;683382;29;800;-78
2023/06/30 00:02:55;;;;;;;6.57;5.10;;;;;;;18.93;69.64;100725.63;682852;29;1450;-78
2023/06/30 00:03:16;;;;;;;6.70;5.13;;;;;;;18.94;69.90;100728.25;684844;28;1177;-77
2023/06/30 00:03:36;;;;;;;6.70;4.93;;;;;;;18.95;69.56;100729.13;691361;28;1082;-78
2023/06/30 00:03:57;;;;;;;6.47;4.80;;;;;;;18.96;69.85;100729.13;688743;28;1574;-77
2023/06/30 00:04:18;;;;;;;6.97;5.00;;;;;;;18.97;69.81;100736.16;685582;28;1922;-77
2023/06/30 00:04:39;;;;;;;6.68;5.07;;;;;;;18.94;69.81;100724.72;688769;28;769;-77
2023/06/30 00:05:13;;;;;;;6.28;4.57;;;;;;;18.96;69.63;100731.75;687363;28;1064;-77
2023/06/30 00:05:34;;;;;;;5.85;4.32;;;;;;;18.93;69.49;100728.25;683368;29;1307;-77
2023/06/30 00:05:56;;;;;;;5.50;4.47;;;;;;;18.94;69.66;100724.72;682935;29;1534;-77
2023/06/30 00:06:16;;;;;;;5.45;4.57;;;;;;;18.95;69.56;100727.38;688302;28;1222;-77
2023/06/30 00:06:37;;;;;;;5.80;4.70;;;;;;;18.98;69.53;100727.31;688166;28;1378;-78
2023/06/30 00:06:59;;;;;;;5.80;4.18;;;;;;;19.02;69.45;100725.53;690976;28;1027;-78
2023/06/30 00:07:22;;;;;;;5.80;4.10;;;;;;;19.02;69.40;100722.91;685319;28;1363;-77
2023/06/30 00:07:43;;;;;;;7.93;4.40;;;;;;;19.08;69.26;100733.47;682631;29;916;-77
2023/06/30 00:08:06;;;;;;;7.53;4.45;;;;;;;19.10;69.20;100730.78;687424;28;1249;-77
2023/06/30 00:08:27;;;;;;;7.97;4.90;;;;;;;19.11;69.17;100733.44;690582;28;1237;-78
2023/06/30 00:08:48;;;;;;;6.13;4.85;;;;;;;19.12;69.11;100734.31;691240;28;1029;-77
2023/06/30 00:09:08;;;;;;;6.70;5.05;;;;;;;19.09;68.98;100724.63;690940;28;1153;-77
2023/06/30 00:09:29;;;;;;;6.70;5.00;;;;;;;19.07;69.01;100720.25;689024;28;1374;-78
2023/06/30 00:09:50;;;;;;;6.70;5.10;;;;;;;19.16;68.92;100729.00;688207;28;1544;-77
2023/06/30 00:10:11;;;;;;;5.95;4.75;;;;;;;19.18;68.86;100735.13;685916;28;1191;-77
2023/06/30 00:10:31;;;;;;;6.22;4.55;;;;;;;19.14;68.74;100725.50;684727;28;1708;-78
2023/06/30 00:10:52;;;;;;;6.50;4.50;;;;;;;19.18;68.60;100728.97;685841;28;1650;-77
2023/06/30 00:11:13;;;;;;;7.50;5.00;;;;;;;19.16;68.59;100726.34;685682;28;1087;-78
2023/06/30 00:11:34;;;;;;;7.47;4.90;;;;;;;19.18;68.56;100727.19;683069;29;2205;-77
2023/06/30 00:11:55;;;;;;;7.65;4.97;;;;;;;19.17;68.70;100730.72;682973;29;1496;-78
2023/06/30 00:12:16;;;;;;;7.22;4.70;;;;;;;19.12;68.40;100718.44;680386;29;1072;-78
2023/06/30 00:12:36;;;;;;;6.90;4.70;;;;;;;19.09;68.37;100715.81;683058;29;1368;-77
2023/06/30 00:12:57;;;;;;;5.93;4.20;;;;;;;19.12;68.44;100719.31;685759;28;1080;-77
2023/06/30 00:13:18;;;;;;;5.77;4.40;;;;;;;19.17;68.38;100728.09;685803;28;1048;-77
2023/06/30 00:13:38;;;;;;;5.50;4.50;;;;;;;19.10;68.21;100710.53;685337;28;1499;-78
2023/06/30 00:13:59;;;;;;;7.00;4.80;;;;;;;19.10;68.60;100721.09;688251;28;1004;-78
2023/06/30 00:14:21;;;;;;;6.90;4.60;;;;;;;19.08;68.32;100719.34;683536;28;1214;-77
2023/06/30 00:14:42;;;;;;;7.20;4.60;;;;;;;19.10;68.32;100723.75;688179;28;1368;-78
2023/06/30 00:15:03;;;;;;;7.27;4.60;;;;;;;19.06;68.38;100716.75;683001;28;1057;-77
2023/06/30 00:15:23;;;;;;;6.60;4.32;;;;;;;19.05;68.35;100722.88;685796;28;1144;-77
2023/06/30 00:15:44;;;;;;;7.20;4.45;;;;;;;19.04;68.51;100724.69;688587;28;1187;-77
2023/06/30 00:16:05;;;;;;;6.70;4.40;;;;;;;19.04;68.31;100723.78;685489;28;1412;-78
2023/06/30 00:16:25;;;;;;;6.90;4.60;;;;;;;19.02;68.43;100721.13;691392;28;917;-77
2023/06/30 00:16:47;;;;;;;6.18;4.40;;;;;;;19.01;68.37;100718.50;690670;28;1077;-78
2023/06/30 00:17:08;;;;;;;6.22;4.40;;;;;;;18.99;68.49;100722.94;685312;28;1426;-77
2023/06/30 00:17:28;;;;;;;6.70;4.40;;;;;;;19.02;68.37;100728.19;682858;29;1244;-77
2023/06/30 00:17:52;;;;;;;6.53;4.32;;;;;;;18.99;68.41;100722.94;691026;28;1384;-78
2023/06/30 00:18:12;;;;;;;6.95;4.43;;;;;;;18.98;68.39;100719.41;684577;28;1199;-77
2023/06/30 00:18:33;;;;;;;7.05;4.32;;;;;;;19.03;68.44;100724.69;680710;29;827;-78
2023/06/30 00:18:55;;;;;;;7.00;4.60;;;;;;;19.00;68.51;100719.41;680370;29;1113;-77
2023/06/30 00:19:19;;;;;;;6.90;4.60;;;;;;;18.97;68.63;100714.09;689409;28;1376;-77
2023/06/30 00:19:40;;;;;;;6.15;4.55;;;;;;;18.97;68.46;100714.09;691360;28;1234;-77
2023/06/30 00:20:05;;;;;;;6.30;4.40;;;;;;;19.03;68.52;100724.69;680323;28;1250;-77
2023/06/30 00:20:26;;;;;;;6.38;4.35;;;;;;;18.99;68.39;100715.00;685191;28;1469;-77
2023/06/30 00:20:47;;;;;;;6.38;4.30;;;;;;;19.00;68.29;100714.09;688551;28;1269;-79
2023/06/30 00:21:08;;;;;;;5.80;4.40;;;;;;;19.00;68.38;100719.41;686449;28;1130;-77
2023/06/30 00:21:29;;;;;;;7.25;4.40;;;;;;;18.96;68.34;100707.06;688168;28;795;-78
2023/06/30 00:21:52;;;;;;;7.00;4.30;;;;;;;19.02;68.41;100723.78;688502;28;1152;-78
2023/06/30 00:22:12;;;;;;;6.85;4.05;;;;;;;19.01;68.66;100724.66;690520;28;1292;-78
2023/06/30 00:22:36;;;;;;;5.68;4.00;;;;;;;18.98;68.51;100710.56;690431;28;898;-77
2023/06/30 00:22:57;;;;;;;5.93;4.30;;;;;;;18.96;68.53;100712.34;685269;28;1435;-78
2023/06/30 00:23:17;;;;;;;5.73;4.40;;;;;;;18.98;68.39;100713.22;689968;28;1139;-78
2023/06/30 00:23:47;;;;;;;5.90;4.30;;;;;;;18.97;68.38;100720.28;688260;28;1350;-77
2023/06/30 00:24:13;;;;;;;5.53;3.80;;;;;;;19.04;68.60;100726.44;688038;28;1922;-78
2023/06/30 00:24:33;;;;;;;6.18;4.25;;;;;;;18.99;68.34;100718.50;683187;29;1032;-78
2023/06/30 00:24:55;;;;;;;6.30;4.47;;;;;;;19.05;68.29;100725.53;685229;28;1442;-78
2023/06/30 00:25:15;;;;;;;6.30;4.65;;;;;;;18.97;68.43;100708.81;685678;28;1200;-77
2023/06/30 00:25:36;;;;;;;6.30;4.20;;;;;;;18.99;68.29;100720.28;683238;29;1023;-77
2023/06/30 00:25:57;;;;;;;6.85;4.40;;;;;;;19.00;68.35;100714.09;684424;28;1052;-79
2023/06/30 00:26:17;;;;;;;6.97;4.37;;;;;;;19.06;68.35;100723.78;690651;28;1072;-77
2023/06/30 00:26:39;;;;;;;7.20;4.40;;;;;;;19.00;68.38;100714.09;691264;28;1211;-77
2023/06/30 00:27:00;;;;;;;7.10;4.30;;;;;;;19.00;68.37;100722.91;686101;28;1536;-77
2023/06/30 00:27:22;;;;;;;7.43;4.40;;;;;;;18.98;68.37;100715.84;684396;28;1153;-77
2023/06/30 00:27:43;;;;;;;9.40;4.40;;;;;;;18.96;68.24;100713.25;683329;29;796;-78
2023/06/30 00:28:03;;;;;;;8.55;4.10;;;;;;;18.94;68.36;100712.41;682696;28;2101;-78
2023/06/30 00:28:24;;;;;;;6.77;3.80;;;;;;;18.98;68.38;100719.41;683218;28;1171;-77
2023/06/30 00:28:45;;;;;;;5.90;3.80;;;;;;;18.95;68.27;100710.59;685907;28;1279;-78
2023/06/30 00:29:07;;;;;;;6.45;4.00;;;;;;;18.99;68.36;100725.56;684892;28;1453;-78
2023/06/30 00:29:28;;;;;;;6.30;4.20;;;;;;;18.94;68.17;100722.09;685834;28;1257;-78
2023/06/30 00:29:49;;;;;;;6.20;4.20;;;;;;;18.96;68.22;100723.81;685788;28;1191;-77
2023/06/30 00:30:10;;;;;;;5.45;4.10;;;;;;;18.92;68.45;100711.50;682468;29;1878;-77
2023/06/30 00:30:31;;;;;;;5.30;3.85;;;;;;;18.89;68.31;100700.97;687878;28;813;-77
2023/06/30 00:30:51;;;;;;;5.22;4.00;;;;;;;18.91;68.15;100710.66;685813;28;1150;-77
2023/06/30 00:31:12;;;;;;;4.67;3.87;;;;;;;18.96;68.38;100720.28;686744;28;1568;-77
2023/06/30 00:31:33;;;;;;;7.10;3.90;;;;;;;18.96;68.31;100712.34;686697;28;1442;-77
2023/06/30 00:31:53;;;;;;;7.40;3.95;;;;;;;18.94;68.47;100707.09;685170;28;1236;-76
2023/06/30 00:32:14;;;;;;;7.60;3.90;;;;;;;18.96;68.40;100709.72;683559;28;1188;-77
2023/06/30 00:32:35;;;;;;;5.70;3.97;;;;;;;18.91;68.47;100697.44;683084;29;1549;-78
2023/06/30 00:32:57;;;;;;;5.70;4.07;;;;;;;18.94;68.38;100709.75;688048;28;1051;-78
2023/06/30 00:33:17;;;;;;;6.22;4.45;;;;;;;18.95;68.21;100716.78;691570;28;1295;-77
2023/06/30 00:33:38;;;;;;;5.73;4.27;;;;;;;19.00;68.11;100716.75;692953;28;1370;-78
2023/06/30 00:33:58;;;;;;;5.30;3.97;;;;;;;18.97;68.16;100714.09;688208;28;1044;-78
2023/06/30 00:34:19;;;;;;;5.37;3.73;;;;;;;18.95;68.08;100708.84;680317;29;1146;-78
2023/06/30 00:34:40;;;;;;;5.40;3.70;;;;;;;18.92;68.20;100700.94;680438;29;928;-77
2023/06/30 00:35:01;;;;;;;6.80;4.20;;;;;;;18.99;68.17;100715.00;688294;28;1125;-77
2023/06/30 00:35:22;;;;;;;7.18;4.00;;;;;;;18.91;67.84;100710.66;688273;28;1120;-76
2023/06/30 00:35:43;;;;;;;7.10;3.95;;;;;;;18.92;67.98;100703.56;688432;28;1358;-78
2023/06/30 00:36:05;;;;;;;5.88;3.70;;;;;;;18.89;67.95;100711.53;687884;28;1391;-78
2023/06/30 00:36:26;;;;;;;5.47;3.78;;;;;;;18.88;67.83;100705.38;685926;28;753;-77
2023/06/30 00:36:46;;;;;;;5.07;3.53;;;;;;;18.91;67.89;100710.66;682122;29;1571;-79
2023/06/30 00:37:07;;;;;;;4.77;3.50;;;;;;;18.89;67.88;100712.41;681761;29;1179;-77
2023/06/30 00:37:27;;;;;;;4.50;3.35;;;;;;;18.89;67.82;100716.81;681455;29;1390;-77
2023/06/30 00:37:48;;;;;;;5.00;3.60;;;;;;;18.90;67.85;100714.19;685718;28;1496;-77
2023/06/30 00:38:09;;;;;;;5.30;3.50;;;;;;;18.94;68.05;100722.09;688953;28;1187;-78
2023/06/30 00:38:29;;;;;;;4.90;3.60;;;;;;;18.90;67.81;100715.94;691362;28;861;-77
2023/06/30 00:38:54;;;;;;;5.15;3.70;;;;;;;18.91;68.00;100709.75;688159;28;1325;-78
2023/06/30 00:39:15;;;;;;;4.80;3.75;;;;;;;18.88;67.91;100705.38;687525;28;1191;-77
2023/06/30 00:39:35;;;;;;;4.30;3.60;;;;;;;18.87;67.97;100703.63;688650;28;767;-77
2023/06/30 00:39:56;;;;;;;3.90;3.30;;;;;;;18.91;67.87;100712.41;685500;28;1174;-77
2023/06/30 00:40:18;;;;;;;4.30;3.40;;;;;;;18.91;67.93;100715.03;685278;28;1221;-77
2023/06/30 00:40:39;;;;;;;4.50;3.40;;;;;;;18.97;67.80;100722.03;682884;29;1019;-78
2023/06/30 00:40:59;;;;;;;4.67;3.40;;;;;;;18.88;67.86;100705.38;682219;29;1135;-78
2023/06/30 00:41:21;;;;;;;4.70;3.40;;;;;;;18.92;67.85;100716.78;682768;28;1502;-78
2023/06/30 00:41:42;;;;;;;4.45;3.35;;;;;;;18.92;67.84;100714.16;683178;28;1219;-78
2023/06/30 00:42:03;;;;;;;4.97;3.30;;;;;;;18.94;67.87;100712.41;684871;28;1070;-77
2023/06/30 00:42:24;;;;;;;5.22;3.30;;;;;;;18.96;68.14;100725.59;685635;28;833;-77
2023/06/30 00:42:45;;;;;;;5.15;3.40;;;;;;;18.91;67.79;100715.94;685875;28;902;-77
2023/06/30 00:43:05;;;;;;;4.73;3.60;;;;;;;18.92;68.01;100708.88;691230;28;1257;-77
2023/06/30 00:43:26;;;;;;;4.50;3.45;;;;;;;18.93;67.92;100715.03;690836;28;1784;-77
2023/06/30 00:43:47;;;;;;;5.07;3.53;;;;;;;18.91;68.13;100713.28;688432;28;1177;-78
2023/06/30 00:44:10;;;;;;;4.70;3.40;;;;;;;18.90;68.09;100719.47;686493;28;1958;-77
2023/06/30 00:44:31;;;;;;;4.90;3.55;;;;;;;18.94;67.99;100725.63;683064;28;1339;-79
2023/06/30 00:44:54;;;;;;;4.63;3.65;;;;;;;18.88;68.07;100720.38;688309;28;1335;-78
2023/06/30 00:45:14;;;;;;;6.32;3.70;;;;;;;18.86;68.02;100711.53;687602;28;1406;-78
2023/06/30 00:45:35;;;;;;;6.80;3.90;;;;;;;18.89;67.92;100716.81;685746;28;1272;-79
2023/06/30 00:45:56;;;;;;;6.72;3.80;;;;;;;18.86;67.79;100715.06;680146;29;1617;-78
2023/06/30 00:46:18;;;;;;;5.30;3.87;;;;;;;18.84;68.03;100714.22;680275;29;1088;-77
2023/06/30 00:46:38;;;;;;;4.88;3.78;;;;;;;18.81;68.20;100711.59;680439;29;1257;-78
2023/06/30 00:47:00;;;;;;;5.15;3.75;;;;;;;18.82;67.97;100716.00;685431;28;1063;-79
2023/06/30 00:47:21;;;;;;;5.90;3.80;;;;;;;18.88;68.17;100723.88;685633;28;1150;-77
2023/06/30 00:47:42;;;;;;;6.28;3.90;;;;;;;18.80;68.08;100712.47;685873;28;795;-78
2023/06/30 00:48:03;;;;;;;5.53;3.70;;;;;;;18.85;68.07;100726.53;685402;28;1186;-78
2023/06/30 00:48:24;;;;;;;5.30;3.70;;;;;;;18.73;68.27;100702.84;686400;28;960;-78
2023/06/30 00:48:45;;;;;;;4.70;3.38;;;;;;;18.76;68.27;100716.03;687347;28;1531;-77
2023/06/30 00:49:07;;;;;;;4.80;3.40;;;;;;;18.79;68.32;100721.28;681439;28;1695;-78
2023/06/30 00:49:28;;;;;;;4.90;3.40;;;;;;;18.77;68.23;100721.28;683891;28;922;-78
2023/06/30 00:49:49;;;;;;;5.00;3.50;;;;;;;18.83;68.11;100717.75;685884;28;1137;-77
2023/06/30 00:50:10;;;;;;;5.88;3.40;;;;;;;18.82;68.12;100721.28;685240;28;1612;-77
2023/06/30 00:50:32;;;;;;;5.85;3.58;;;;;;;18.85;68.40;100715.97;685902;28;820;-78
2023/06/30 00:50:53;;;;;;;5.68;3.55;;;;;;;18.82;68.27;100709.81;685644;28;1186;-77
2023/06/30 00:51:14;;;;;;;6.07;3.67;;;;;;;18.82;68.24;100710.72;688737;28;1185;-78
2023/06/30 00:51:34;;;;;;;6.40;3.40;;;;;;;18.84;68.23;100714.22;688183;28;967;-77
2023/06/30 00:51:55;;;;;;;6.53;3.57;;;;;;;18.84;68.03;100715.97;688208;28;1162;-77
2023/06/30 00:52:16;;;;;;;5.43;3.63;;;;;;;18.81;68.25;100713.38;684576;28;1915;-77
2023/06/30 00:52:37;;;;;;;5.50;4.10;;;;;;;18.87;68.07;100724.75;688584;28;704;-77
2023/06/30 00:52:59;;;;;;;5.88;4.10;;;;;;;18.86;68.11;100722.13;684793;28;1580;-77
2023/06/30 00:53:20;;;;;;;5.55;4.10;;;;;;;18.80;68.33;100723.03;684929;28;1341;-77
2023/06/30 00:53:41;;;;;;;5.65;3.85;;;;;;;18.83;68.22;100725.69;685793;28;908;-78
2023/06/30 00:54:02;;;;;;;5.35;3.72;;;;;;;18.76;68.36;100721.34;682883;29;1064;-77
2023/06/30 00:54:23;;;;;;;6.00;3.73;;;;;;;18.78;68.14;100722.19;686176;28;1469;-77
2023/06/30 00:54:43;;;;;;;6.38;3.60;;;;;;;18.76;68.43;100713.41;691774;28;1530;-77
2023/06/30 00:55:06;;;;;;;6.37;3.70;;;;;;;18.77;68.55;100715.16;690460;28;1185;-78
2023/06/30 00:55:28;;;;;;;5.53;3.50;;;;;;;18.74;68.57;100723.09;682804;29;2076;-78
2023/06/30 00:55:50;;;;;;;5.25;3.60;;;;;;;18.76;68.65;100726.63;685562;28;1479;-78
2023/06/30 00:56:10;;;;;;;5.78;3.80;;;;;;;18.74;68.54;100717.81;688133;28;1883;-78
2023/06/30 00:56:31;;;;;;;6.00;4.17;;;;;;;18.74;68.50;100725.72;685665;28;1205;-77
2023/06/30 00:56:51;;;;;;;5.05;3.88;;;;;;;18.71;68.62;100715.19;693838;28;1038;-77
2023/06/30 00:57:13;;;;;;;5.53;3.78;;;;;;;18.72;68.68;100720.47;689455;28;1096;-78
2023/06/30 00:57:33;;;;;;;5.53;3.55;;;;;;;18.68;68.43;100715.22;685878;28;1166;-78
2023/06/30 00:57:54;;;;;;;6.45;3.80;;;;;;;18.73;68.55;100718.69;685411;28;1405;-77
2023/06/30 00:58:15;;;;;;;6.10;3.80;;;;;;;18.68;68.64;100712.56;686053;28;1404;-78
2023/06/30 00:58:35;;;;;;;5.68;3.55;;;;;;;18.75;68.68;100722.22;685884;28;795;-77
2023/06/30 00:58:57;;;;;;;5.30;3.50;;;;;;;18.76;68.58;100722.19;687877;28;1666;-78
2023/06/30 00:59:18;;;;;;;5.53;3.45;;;;;;;18.75;68.54;100719.59;685478;28;1106;-77
2023/06/30 00:59:38;;;;;;;5.40;3.70;;;;;;;18.74;68.28;100723.09;685891;28;801;-78
2023/06/30 01:00:05;;;;;;;6.50;3.80;;;;;;;18.70;68.50;100716.09;683369;28;1534;-77
2023/06/30 01:00:26;;;;;;;7.10;4.00;;;;;;;18.68;68.42;100712.56;677856;29;796;-78
2023/06/30 01:00:47;;;;;;;5.43;3.70;;;;;;;18.69;68.41;100714.31;683098;28;1134;-78
2023/06/30 01:01:32;;;;;;;4.88;3.70;;;;;;;18.69;68.61;100714.31;689143;28;1398;-77
2023/06/30 01:02:13;;;;;;;5.10;3.90;;;;;;;18.67;68.70;100710.81;690868;28;1098;-78
2023/06/30 01:02:43;;;;;;;5.22;3.95;;;;;;;18.71;68.72;100723.13;683230;28;1330;-77
2023/06/30 01:03:27;;;;;;;5.00;3.80;;;;;;;18.60;68.66;100710.88;681853;29;1272;-77
2023/06/30 01:04:12;;;;;;;5.45;3.60;;;;;;;18.66;68.70;100711.69;687869;28;1400;-78
2023/06/30 01:05:07;;;;;;;5.43;3.40;;;;;;;18.62;68.81;100714.38;690968;28;858;-78
2023/06/30 01:05:44;;;;;;;5.72;3.75;;;;;;;18.62;68.92;100719.66;681473;28;1439;-79
2023/06/30 01:06:32;;;;;;;4.88;3.88;;;;;;;18.55;68.99;100717.06;685265;28;1131;-78
2023/06/30 01:07:04;;;;;;;4.95;3.60;;;;;;;18.59;68.88;100719.69;685391;28;1393;-77
2023/06/30 01:07:48;;;;;;;5.15;4.00;;;;;;;18.58;68.98;100727.59;681785;29;1029;-78
2023/06/30 01:08:18;;;;;;;7.97;3.95;;;;;;;18.54;68.81;100716.19;688179;28;1112;-78
2023/06/30 01:08:48;;;;;;;7.32;3.75;;;;;;;18.57;68.56;100721.44;683548;28;1560;-77
2023/06/30 01:09:33;;;;;;;4.93;3.50;;;;;;;18.55;68.71;100717.06;684993;28;1163;-78
2023/06/30 01:10:00;;;;;;;4.47;3.58;;;;;;;18.49;68.66;100715.31;687264;28;1306;-77
2023/06/30 01:10:23;;;;;;;4.47;3.50;;;;;;;18.51;68.53;100724.13;689698;28;1356;-77
2023/06/30 01:10:45;;;;;;;4.40;3.47;;;;;;;18.50;68.82;100725.88;690413;28;1315;-77
2023/06/30 01:11:09;;;;;;;4.82;3.40;;;;;;;18.49;68.70;100718.84;690032;28;1040;-77
2023/06/30 01:11:32;;;;;;;4.90;3.60;;;;;;;18.49;68.52;100718.84;687653;28;1360;-78
2023/06/30 01:11:55;;;;;;;5.00;3.60;;;;;;;18.45;68.65;100716.25;683165;28;1471;-78
2023/06/30 01:12:17;;;;;;;5.55;3.97;;;;;;;18.43;68.51;100713.59;692247;28;1307;-77
2023/06/30 01:12:38;;;;;;;5.50;3.90;;;;;;;18.42;68.68;100711.84;696199;28;1414;-78
2023/06/30 01:13:01;;;;;;;6.00;3.97;;;;;;;18.40;68.60;100718.91;690794;28;1303;-77
2023/06/30 01:13:24;;;;;;;5.00;3.70;;;;;;;18.45;68.48;100716.25;683065;28;993;-77
2023/06/30 01:13:45;;;;;;;5.80;4.20;;;;;;;18.52;68.42;100728.53;685959;28;889;-78
2023/06/30 01:14:08;;;;;;;5.72;4.05;;;;;;;18.47;68.41;100725.03;684260;28;1169;-78
2023/06/30 01:14:30;;;;;;;5.90;3.92;;;;;;;18.46;68.37;100715.34;687582;28;956;-78
2023/06/30 01:14:53;;;;;;;5.00;3.60;;;;;;;18.53;68.30;100719.72;688273;28;1032;-77
2023/06/30 01:15:15;;;;;;;4.40;3.50;;;;;;;18.50;68.27;100719.72;687300;28;1178;-77
2023/06/30 01:15:37;;;;;;;4.10;3.30;;;;;;;18.46;68.13;100718.00;688569;28;748;-77
2023/06/30 01:15:58;;;;;;;4.10;3.30;;;;;;;18.52;68.33;100731.16;682579;29;1622;-78
2023/06/30 01:16:20;;;;;;;4.38;3.25;;;;;;;18.49;68.31;100725.88;682728;28;1439;-78
2023/06/30 01:16:43;;;;;;;4.10;3.20;;;;;;;18.45;68.28;100714.47;682218;29;1549;-78
2023/06/30 01:17:06;;;;;;;4.15;3.22;;;;;;;18.48;68.35;100724.13;685029;28;1210;-78
2023/06/30 01:17:27;;;;;;;4.55;3.50;;;;;;;18.46;68.22;100721.53;687627;28;1312;-78
2023/06/30 01:17:59;;;;;;;5.30;3.80;;;;;;;18.50;68.51;100730.28;690580;28;1214;-77
2023/06/30 01:18:23;;;;;;;6.43;3.60;;;;;;;18.46;68.34;100721.53;683551;28;1857;-77
2023/06/30 01:18:45;;;;;;;5.55;3.35;;;;;;;18.42;68.28;100717.13;683035;29;871;-76
2023/06/30 01:19:18;;;;;;;6.22;3.30;;;;;;;18.49;68.17;100717.97;683289;28;1181;-77
2023/06/30 01:19:44;;;;;;;5.60;3.30;;;;;;;18.42;68.36;100714.47;687974;28;1673;-77
2023/06/30 01:20:09;;;;;;;4.70;3.30;;;;;;;18.42;67.95;100717.13;688768;28;1265;-77
2023/06/30 01:20:33;;;;;;;5.82;3.13;;;;;;;18.47;68.09;100720.63;691881;28;876;-77
2023/06/30 01:20:55;;;;;;;6.28;3.58;;;;;;;18.46;68.22;100718.00;689642;28;1377;-78
2023/06/30 01:21:16;;;;;;;5.93;3.40;;;;;;;18.51;68.11;100729.41;682830;28;1219;-78
2023/06/30 01:21:38;;;;;;;4.57;3.28;;;;;;;18.50;67.96;100728.53;691005;28;1562;-78
2023/06/30 01:22:04;;;;;;;4.40;3.17;;;;;;;18.48;68.08;100721.50;689396;28;1024;-77
2023/06/30 01:22:39;;;;;;;4.70;3.20;;;;;;;18.53;68.07;100725.00;685862;28;1016;-78
2023/06/30 01:23:14;;;;;;;4.60;3.30;;;;;;;18.49;67.98;100723.25;687938;28;1974;-77
2023/06/30 01:23:54;;;;;;;3.95;3.30;;;;;;;18.46;67.93;100713.59;688295;28;894;-77
2023/06/30 01:24:17;;;;;;;5.63;3.25;;;;;;;18.52;68.15;100727.63;690575;28;1920;-78
2023/06/30 01:24:39;;;;;;;5.80;3.40;;;;;;;18.52;68.02;100722.34;688039;28;1238;-78
2023/06/30 01:25:08;;;;;;;5.50;3.40;;;;;;;18.52;67.86;100719.72;685503;28;1599;-77
2023/06/30 01:25:30;;;;;;;4.53;3.30;;;;;;;18.50;67.93;100719.72;686017;28;913;-77
2023/06/30 01:25:52;;;;;;;4.15;3.10;;;;;;;18.47;67.82;100719.75;690669;28;1115;-76
2023/06/30 01:26:13;;;;;;;4.38;3.15;;;;;;;18.52;68.00;100723.25;687545;28;1446;-77
2023/06/30 01:26:34;;;;;;;4.10;3.10;;;;;;;18.54;67.65;100725.84;683155;29;1386;-77
2023/06/30 01:26:55;;;;;;;4.25;3.22;;;;;;;18.49;67.83;100712.69;682925;28;1246;-77
2023/06/30 01:27:16;;;;;;;3.78;2.97;;;;;;;18.48;67.59;100713.56;685234;28;1310;-77
2023/06/30 01:27:40;;;;;;;4.68;3.10;;;;;;;18.43;67.62;100705.66;696207;28;1129;-76
2023/06/30 01:28:02;;;;;;;5.30;3.20;;;;;;;18.45;67.40;100713.59;690772;28;1489;-77
2023/06/30 01:28:23;;;;;;;5.30;3.10;;;;;;;18.40;67.34;100703.06;684043;28;1469;-77
2023/06/30 01:28:45;;;;;;;4.20;3.00;;;;;;;18.47;67.36;100717.09;680464;29;811;-77
2023/06/30 01:29:06;;;;;;;4.53;2.90;;;;;;;18.37;67.18;100700.41;685132;28;1285;-77
2023/06/30 01:29:28;;;;;;;5.00;2.92;;;;;;;18.38;66.98;100703.94;693524;28;1483;-78
2023/06/30 01:29:52;;;;;;;4.32;2.80;;;;;;;18.41;67.21;100709.19;690967;28;1370;-77
2023/06/30 01:30:13;;;;;;;4.95;3.10;;;;;;;18.42;67.13;100706.56;690713;28;1123;-78
2023/06/30 01:30:36;;;;;;;5.75;3.20;;;;;;;18.42;67.24;100710.94;690466;28;1495;-78
2023/06/30 01:30:56;;;;;;;6.45;3.38;;;;;;;18.38;67.18;100706.59;688113;28;1124;-77
2023/06/30 01:31:20;;;;;;;5.82;3.35;;;;;;;18.41;67.09;100709.19;685640;28;1284;-77
2023/06/30 01:31:43;;;;;;;5.18;3.33;;;;;;;18.39;66.84;100710.97;685418;28;1445;-77
2023/06/30 01:32:04;;;;;;;4.45;3.20;;;;;;;18.38;67.26;100710.09;688354;28;1115;-77
2023/06/30 01:32:25;;;;;;;4.70;3.10;;;;;;;18.36;67.05;100707.47;690169;28;1441;-78
2023/06/30 01:32:46;;;;;;;4.88;3.10;;;;;;;18.35;66.98;100716.28;685559;28;1362;-78
2023/06/30 01:33:07;;;;;;;5.35;3.22;;;;;;;18.38;66.94;100717.16;689658;28;1693;-77
2023/06/30 01:33:28;;;;;;;3.97;2.95;;;;;;;18.39;66.89;100717.16;687943;28;956;-77
2023/06/30 01:33:49;;;;;;;4.10;3.20;;;;;;;18.33;66.77;100712.75;690732;28;1574;-77
2023/06/30 01:34:10;;;;;;;4.07;3.17;;;;;;;18.31;66.92;100709.25;690757;28;1176;-78
2023/06/30 01:34:31;;;;;;;4.40;3.30;;;;;;;18.39;66.85;100724.19;688496;28;811;-77
2023/06/30 01:34:51;;;;;;;4.53;3.10;;;;;;;18.31;66.98;100711.91;687979;28;1504;-79
2023/06/30 01:35:13;;;;;;;4.80;3.07;;;;;;;18.30;66.82;100711.91;687890;28;1126;-78
2023/06/30 01:35:33;;;;;;;4.53;2.90;;;;;;;18.33;67.17;100723.31;683154;29;921;-77
2023/06/30 01:35:54;;;;;;;4.47;2.90;;;;;;;18.34;66.86;100717.16;685663;28;1606;-77
2023/06/30 01:36:15;;;;;;;4.30;2.90;;;;;;;18.28;66.91;100706.66;688827;28;1058;-77
2023/06/30 01:36:35;;;;;;;4.00;2.90;;;;;;;18.33;66.67;100717.19;693880;28;854;-76
2023/06/30 01:36:56;;;;;;;4.27;2.87;;;;;;;18.27;66.79;100707.53;691807;28;1157;-77
2023/06/30 01:37:17;;;;;;;5.15;2.88;;;;;;;18.31;66.66;100713.69;688042;28;1158;-77
2023/06/30 01:37:37;;;;;;;5.88;3.10;;;;;;;18.32;66.76;100713.66;683119;28;1325;-77
2023/06/30 01:37:59;;;;;;;5.23;3.10;;;;;;;18.29;66.79;100711.03;682778;28;1032;-78
2023/06/30 01:38:20;;;;;;;4.70;3.20;;;;;;;18.29;66.67;100711.03;682580;29;1526;-78
2023/06/30 01:38:40;;;;;;;5.32;3.10;;;;;;;18.21;66.73;100702.28;681473;29;795;-79
2023/06/30 01:39:01;;;;;;;6.63;3.10;;;;;;;18.25;66.85;100713.69;682802;29;1401;-77
2023/06/30 01:39:21;;;;;;;6.80;3.20;;;;;;;18.24;66.63;100711.94;680167;29;1384;-77
2023/06/30 01:39:42;;;;;;;6.40;3.30;;;;;;;18.20;66.77;100705.81;683137;29;840;-77
2023/06/30 01:40:06;;;;;;;5.60;3.30;;;;;;;18.24;66.72;100712.81;686887;28;1158;-78
2023/06/30 01:40:26;;;;;;;4.88;2.95;;;;;;;18.17;66.44;100705.81;685541;28;816;-77
2023/06/30 01:40:47;;;;;;;4.15;2.80;;;;;;;18.22;66.50;100717.22;685570;28;1069;-77
2023/06/30 01:41:09;;;;;;;3.88;2.80;;;;;;;18.23;66.74;100716.34;682483;29;1267;-77
2023/06/30 01:41:30;;;;;;;4.00;3.00;;;;;;;18.15;66.65;100705.84;687204;28;1512;-77
2023/06/30 01:41:53;;;;;;;3.90;2.88;;;;;;;18.14;66.85;100705.78;688173;28;1167;-78
2023/06/30 01:42:15;;;;;;;4.13;3.20;;;;;;;18.18;66.96;100712.84;687106;28;1249;-77
2023/06/30 01:42:37;;;;;;;3.95;3.10;;;;;;;18.14;67.33;100703.16;682843;29;1307;-77
2023/06/30 01:42:58;;;;;;;4.00;2.92;;;;;;;18.13;67.43;100704.03;685303;28;1142;-77
2023/06/30 01:43:20;;;;;;;4.50;2.90;;;;;;;18.14;67.52;100711.97;692632;28;1203;-77
2023/06/30 01:43:42;;;;;;;5.97;3.08;;;;;;;18.10;67.75;100704.94;688052;28;811;-78
2023/06/30 01:44:03;;;;;;;6.70;3.20;;;;;;;18.08;67.79;100697.00;684973;28;1907;-78
2023/06/30 01:44:24;;;;;;;6.25;3.40;;;;;;;18.14;67.84;100705.78;685721;28;1110;-78
2023/06/30 01:44:47;;;;;;;5.82;3.65;;;;;;;18.11;68.01;100708.44;679792;29;1621;-76
2023/06/30 01:45:10;;;;;;;4.85;3.42;;;;;;;18.08;68.06;100702.28;685164;28;2144;-77
2023/06/30 01:45:32;;;;;;;4.85;3.33;;;;;;;18.09;68.14;100713.75;685861;28;973;-77
2023/06/30 01:45:54;;;;;;;5.43;3.20;;;;;;;18.08;68.42;100712.84;682376;29;1694;-77
2023/06/30 01:46:15;;;;;;;6.10;3.40;;;;;;;18.01;68.34;100695.28;687294;28;1132;-77
2023/06/30 01:46:36;;;;;;;5.45;3.47;;;;;;;18.02;68.51;100706.72;685161;28;1512;-77
2023/06/30 01:46:57;;;;;;;5.82;3.60;;;;;;;18.00;68.67;100701.44;684368;28;2038;-78
2023/06/30 01:47:19;;;;;;;5.18;3.55;;;;;;;18.01;68.83;100711.13;690819;28;1235;-77
2023/06/30 01:47:40;;;;;;;5.53;3.45;;;;;;;18.04;68.96;100715.50;687466;28;1462;-77
2023/06/30 01:48:01;;;;;;;5.22;3.40;;;;;;;17.99;69.06;100702.34;684892;28;1313;-78